Terminal Aerodrome Forecast
Issued by NWS Louisville, KY

Home | Current Version | Previous Version | Text Only | Print | Product List | Glossary On
Versions: 1 2 3 4 5 6 7 8 9 10 11 12 13 14 15
000
FTUS43 KLMK 302300
TAFSDF
TAF
KSDF 302320Z 3100/0106 24006KT 6SM -SHRA BR BKN040 OVC070
     FM310600 19007KT 5SM -SHRA BR BKN030 OVC060
     FM311400 20007KT P6SM VCSH BKN040=

USA.gov is the U.S. government's official web portal to all federal, state and local government web resources and services.